sensor_id;sensor_type;location;lat;lon;timestamp;temperature;humidity
7206;DHT22;3644;53.480;10.004;2023-12-20T00:01:20;9.60;99.90
7206;DHT22;3644;53.480;10.004;2023-12-20T00:03:45;9.50;99.90
7206;DHT22;3644;53.480;10.004;2023-12-20T00:06:11;9.50;99.90
7206;DHT22;3644;53.480;10.004;2023-12-20T00:08:36;9.40;99.90
7206;DHT22;3644;53.480;10.004;2023-12-20T00:11:02;9.40;99.90
7206;DHT22;3644;53.480;10.004;2023-12-20T00:13:27;9.40;99.90
7206;DHT22;3644;53.480;10.004;2023-12-20T00:15:52;9.10;99.90
7206;DHT22;3644;53.480;10.004;2023-12-20T00:18:18;9.00;99.90
7206;DHT22;3644;53.480;10.004;2023-12-20T00:20:44;9.00;99.90
7206;DHT22;3644;53.480;10.004;2023-12-20T00:23:09;9.10;99.90
7206;DHT22;3644;53.480;10.004;2023-12-20T00:25:35;9.10;99.90
7206;DHT22;3644;53.480;10.004;2023-12-20T00:28:01;9.00;99.90
7206;DHT22;3644;53.480;10.004;2023-12-20T00:30:27;8.90;99.90
7206;DHT22;3644;53.480;10.004;2023-12-20T00:32:53;8.80;99.90
7206;DHT22;3644;53.480;10.004;2023-12-20T00:35:18;8.70;99.90
7206;DHT22;3644;53.480;10.004;2023-12-20T00:37:44;8.90;99.90
7206;DHT22;3644;53.480;10.004;2023-12-20T00:40:10;9.00;99.90
7206;DHT22;3644;53.480;10.004;2023-12-20T00:42:35;8.80;99.90
7206;DHT22;3644;53.480;10.004;2023-12-20T00:45:02;8.80;99.90
7206;DHT22;3644;53.480;10.004;2023-12-20T00:47:28;9.10;99.90
7206;DHT22;3644;53.480;10.004;2023-12-20T00:49:53;9.20;99.90
7206;DHT22;3644;53.480;10.004;2023-12-20T00:52:19;8.90;99.90
7206;DHT22;3644;53.480;10.004;2023-12-20T00:54:45;8.80;99.90
7206;DHT22;3644;53.480;10.004;2023-12-20T00:57:10;9.00;99.90
7206;DHT22;3644;53.480;10.004;2023-12-20T00:59:36;8.80;99.90
7206;DHT22;3644;53.480;10.004;2023-12-20T01:02:02;9.00;99.90
7206;DHT22;3644;53.480;10.004;2023-12-20T01:04:27;9.00;99.90
7206;DHT22;3644;53.480;10.004;2023-12-20T01:06:53;9.00;99.90
7206;DHT22;3644;53.480;10.004;2023-12-20T01:09:19;8.80;99.90
7206;DHT22;3644;53.480;10.004;2023-12-20T01:11:44;8.80;99.90
7206;DHT22;3644;53.480;10.004;2023-12-20T01:14:11;8.90;99.90
7206;DHT22;3644;53.480;10.004;2023-12-20T01:16:37;8.70;99.90
7206;DHT22;3644;53.480;10.004;2023-12-20T01:19:02;8.90;99.90
7206;DHT22;3644;53.480;10.004;2023-12-20T01:21:28;8.90;99.90
7206;DHT22;3644;53.480;10.004;2023-12-20T01:23:53;9.10;99.90
7206;DHT22;3644;53.480;10.004;2023-12-20T01:26:19;8.90;99.90
7206;DHT22;3644;53.480;10.004;2023-12-20T01:28:44;8.80;99.90
7206;DHT22;3644;53.480;10.004;2023-12-20T01:31:10;8.90;99.90
7206;DHT22;3644;53.480;10.004;2023-12-20T01:33:35;8.70;99.90
7206;DHT22;3644;53.480;10.004;2023-12-20T01:36:00;8.80;99.90
7206;DHT22;3644;53.480;10.004;2023-12-20T01:38:26;8.70;99.90
7206;DHT22;3644;53.480;10.004;2023-12-20T01:40:51;8.80;99.90
7206;DHT22;3644;53.480;10.004;2023-12-20T01:43:17;8.80;99.90
7206;DHT22;3644;53.480;10.004;2023-12-20T01:45:42;8.80;99.90
7206;DHT22;3644;53.480;10.004;2023-12-20T01:48:08;8.80;99.90
7206;DHT22;3644;53.480;10.004;2023-12-20T01:50:36;8.70;99.90
7206;DHT22;3644;53.480;10.004;2023-12-20T01:53:03;8.80;99.90
7206;DHT22;3644;53.480;10.004;2023-12-20T01:55:32;8.60;99.90
7206;DHT22;3644;53.480;10.004;2023-12-20T01:57:59;8.80;99.90
7206;DHT22;3644;53.480;10.004;2023-12-20T02:00:25;8.90;99.90
7206;DHT22;3644;53.480;10.004;2023-12-20T02:02:53;8.80;99.90
7206;DHT22;3644;53.480;10.004;2023-12-20T02:05:19;8.50;99.90
7206;DHT22;3644;53.480;10.004;2023-12-20T02:07:44;8.50;99.90
7206;DHT22;3644;53.480;10.004;2023-12-20T02:10:10;8.70;99.90
7206;DHT22;3644;53.480;10.004;2023-12-20T02:12:36;8.50;99.90
7206;DHT22;3644;53.480;10.004;2023-12-20T02:15:01;8.50;99.90
7206;DHT22;3644;53.480;10.004;2023-12-20T02:17:27;8.50;99.90
7206;DHT22;3644;53.480;10.004;2023-12-20T02:19:53;8.20;99.90
7206;DHT22;3644;53.480;10.004;2023-12-20T02:22:19;8.20;99.90
7206;DHT22;3644;53.480;10.004;2023-12-20T02:24:44;8.20;99.90
7206;DHT22;3644;53.480;10.004;2023-12-20T02:27:10;8.50;99.90
7206;DHT22;3644;53.480;10.004;2023-12-20T02:29:36;8.30;99.90
7206;DHT22;3644;53.480;10.004;2023-12-20T02:32:02;8.40;99.90
7206;DHT22;3644;53.480;10.004;2023-12-20T02:34:28;8.50;99.90
7206;DHT22;3644;53.480;10.004;2023-12-20T02:36:54;8.50;99.90
7206;DHT22;3644;53.480;10.004;2023-12-20T02:39:20;8.40;99.90
7206;DHT22;3644;53.480;10.004;2023-12-20T02:41:46;8.10;99.90
7206;DHT22;3644;53.480;10.004;2023-12-20T02:44:12;7.90;99.90
7206;DHT22;3644;53.480;10.004;2023-12-20T02:46:37;8.10;99.90
7206;DHT22;3644;53.480;10.004;2023-12-20T02:49:02;8.10;99.90
7206;DHT22;3644;53.480;10.004;2023-12-20T02:51:28;8.20;99.90
7206;DHT22;3644;53.480;10.004;2023-12-20T02:53:53;8.60;99.90
7206;DHT22;3644;53.480;10.004;2023-12-20T02:56:19;8.60;99.90
7206;DHT22;3644;53.480;10.004;2023-12-20T02:58:44;8.40;99.90
7206;DHT22;3644;53.480;10.004;2023-12-20T03:01:10;8.10;99.90
7206;DHT22;3644;53.480;10.004;2023-12-20T03:03:35;7.90;99.90
7206;DHT22;3644;53.480;10.004;2023-12-20T03:06:01;7.90;99.90
7206;DHT22;3644;53.480;10.004;2023-12-20T03:08:26;8.10;99.90
7206;DHT22;3644;53.480;10.004;2023-12-20T03:10:52;8.20;99.90
7206;DHT22;3644;53.480;10.004;2023-12-20T03:13:18;8.20;99.90
7206;DHT22;3644;53.480;10.004;2023-12-20T03:15:45;8.20;99.90
7206;DHT22;3644;53.480;10.004;2023-12-20T03:18:10;8.30;99.90
7206;DHT22;3644;53.480;10.004;2023-12-20T03:20:36;8.30;99.90
7206;DHT22;3644;53.480;10.004;2023-12-20T03:23:01;8.10;99.90
7206;DHT22;3644;53.480;10.004;2023-12-20T03:25:27;8.10;99.90
7206;DHT22;3644;53.480;10.004;2023-12-20T03:27:52;8.20;99.90
7206;DHT22;3644;53.480;10.004;2023-12-20T03:30:18;8.20;99.90
7206;DHT22;3644;53.480;10.004;2023-12-20T03:32:44;8.00;99.90
7206;DHT22;3644;53.480;10.004;2023-12-20T03:35:10;8.40;99.90
7206;DHT22;3644;53.480;10.004;2023-12-20T03:37:35;7.90;99.90
7206;DHT22;3644;53.480;10.004;2023-12-20T03:40:01;7.90;99.90
7206;DHT22;3644;53.480;10.004;2023-12-20T03:42:27;7.90;99.90
7206;DHT22;3644;53.480;10.004;2023-12-20T03:44:52;7.80;99.90
7206;DHT22;3644;53.480;10.004;2023-12-20T03:47:18;8.00;99.90
7206;DHT22;3644;53.480;10.004;2023-12-20T03:49:43;8.10;99.90
7206;DHT22;3644;53.480;10.004;2023-12-20T03:52:09;7.80;99.90
7206;DHT22;3644;53.480;10.004;2023-12-20T03:54:37;8.00;99.90
7206;DHT22;3644;53.480;10.004;2023-12-20T03:57:03;8.10;99.90
7206;DHT22;3644;53.480;10.004;2023-12-20T03:59:29;7.90;99.90
7206;DHT22;3644;53.480;10.004;2023-12-20T04:01:54;7.90;99.90
7206;DHT22;3644;53.480;10.004;2023-12-20T04:04:20;7.90;99.90
7206;DHT22;3644;53.480;10.004;2023-12-20T04:06:45;7.90;99.90
7206;DHT22;3644;53.480;10.004;2023-12-20T04:09:11;7.80;99.90
7206;DHT22;3644;53.480;10.004;2023-12-20T04:11:37;8.00;99.90
7206;DHT22;3644;53.480;10.004;2023-12-20T04:14:03;7.90;99.90
7206;DHT22;3644;53.480;10.004;2023-12-20T04:16:30;7.90;99.90
7206;DHT22;3644;53.480;10.004;2023-12-20T04:18:55;8.00;99.90
7206;DHT22;3644;53.480;10.004;2023-12-20T04:21:21;7.90;99.90
7206;DHT22;3644;53.480;10.004;2023-12-20T04:23:46;8.00;99.90
7206;DHT22;3644;53.480;10.004;2023-12-20T04:26:12;8.10;99.90
7206;DHT22;3644;53.480;10.004;2023-12-20T04:28:38;8.20;99.90
7206;DHT22;3644;53.480;10.004;2023-12-20T04:31:03;8.30;99.90
7206;DHT22;3644;53.480;10.004;2023-12-20T04:33:29;8.20;99.90
7206;DHT22;3644;53.480;10.004;2023-12-20T04:35:54;8.20;99.90
7206;DHT22;3644;53.480;10.004;2023-12-20T04:38:20;8.40;99.90
7206;DHT22;3644;53.480;10.004;2023-12-20T04:40:45;8.50;99.90
7206;DHT22;3644;53.480;10.004;2023-12-20T04:43:11;8.30;99.90
7206;DHT22;3644;53.480;10.004;2023-12-20T04:45:36;8.20;99.90
7206;DHT22;3644;53.480;10.004;2023-12-20T04:48:02;8.30;99.90
7206;DHT22;3644;53.480;10.004;2023-12-20T04:50:28;8.40;99.90
7206;DHT22;3644;53.480;10.004;2023-12-20T04:52:53;8.40;99.90
7206;DHT22;3644;53.480;10.004;2023-12-20T04:55:19;8.30;99.90
7206;DHT22;3644;53.480;10.004;2023-12-20T04:57:45;8.20;99.90
7206;DHT22;3644;53.480;10.004;2023-12-20T05:00:11;8.00;99.90
7206;DHT22;3644;53.480;10.004;2023-12-20T05:02:37;7.90;99.90
7206;DHT22;3644;53.480;10.004;2023-12-20T05:05:03;8.00;99.90
7206;DHT22;3644;53.480;10.004;2023-12-20T05:07:28;7.90;99.90
7206;DHT22;3644;53.480;10.004;2023-12-20T05:09:54;8.10;99.90
7206;DHT22;3644;53.480;10.004;2023-12-20T05:12:19;8.10;99.90
7206;DHT22;3644;53.480;10.004;2023-12-20T05:14:45;7.90;99.90
7206;DHT22;3644;53.480;10.004;2023-12-20T05:17:11;8.10;99.90
7206;DHT22;3644;53.480;10.004;2023-12-20T05:19:36;8.00;99.90
7206;DHT22;3644;53.480;10.004;2023-12-20T05:22:02;7.80;99.90
7206;DHT22;3644;53.480;10.004;2023-12-20T05:24:28;7.70;99.90
7206;DHT22;3644;53.480;10.004;2023-12-20T05:26:53;7.80;99.90
7206;DHT22;3644;53.480;10.004;2023-12-20T05:29:19;7.90;99.90
7206;DHT22;3644;53.480;10.004;2023-12-20T05:31:45;8.20;99.90
7206;DHT22;3644;53.480;10.004;2023-12-20T05:34:10;8.10;99.90
7206;DHT22;3644;53.480;10.004;2023-12-20T05:36:36;8.30;99.90
7206;DHT22;3644;53.480;10.004;2023-12-20T05:39:02;8.30;99.90
7206;DHT22;3644;53.480;10.004;2023-12-20T05:41:29;8.00;99.90
7206;DHT22;3644;53.480;10.004;2023-12-20T05:43:55;8.20;99.90
7206;DHT22;3644;53.480;10.004;2023-12-20T05:46:20;8.00;99.90
7206;DHT22;3644;53.480;10.004;2023-12-20T05:48:47;8.20;99.90
7206;DHT22;3644;53.480;10.004;2023-12-20T05:51:12;8.00;99.90
7206;DHT22;3644;53.480;10.004;2023-12-20T05:53:38;7.90;99.90
7206;DHT22;3644;53.480;10.004;2023-12-20T05:56:04;7.90;99.90
7206;DHT22;3644;53.480;10.004;2023-12-20T05:58:29;7.90;99.90
7206;DHT22;3644;53.480;10.004;2023-12-20T06:00:55;8.10;99.90
7206;DHT22;3644;53.480;10.004;2023-12-20T06:03:20;8.00;99.90
7206;DHT22;3644;53.480;10.004;2023-12-20T06:05:46;8.00;99.90
7206;DHT22;3644;53.480;10.004;2023-12-20T06:08:12;7.90;99.90
7206;DHT22;3644;53.480;10.004;2023-12-20T06:10:37;8.10;99.90
7206;DHT22;3644;53.480;10.004;2023-12-20T06:13:03;8.00;99.90
7206;DHT22;3644;53.480;10.004;2023-12-20T06:15:30;7.90;99.90
7206;DHT22;3644;53.480;10.004;2023-12-20T06:17:55;8.00;99.90
7206;DHT22;3644;53.480;10.004;2023-12-20T06:20:21;7.90;99.90
7206;DHT22;3644;53.480;10.004;2023-12-20T06:22:46;8.00;99.90
7206;DHT22;3644;53.480;10.004;2023-12-20T06:25:12;8.10;99.90
7206;DHT22;3644;53.480;10.004;2023-12-20T06:27:37;8.10;99.90
7206;DHT22;3644;53.480;10.004;2023-12-20T06:30:03;8.00;99.90
7206;DHT22;3644;53.480;10.004;2023-12-20T06:32:29;8.10;99.90
7206;DHT22;3644;53.480;10.004;2023-12-20T06:34:55;8.10;99.90
7206;DHT22;3644;53.480;10.004;2023-12-20T06:37:20;8.00;99.90
7206;DHT22;3644;53.480;10.004;2023-12-20T06:39:45;7.90;99.90
7206;DHT22;3644;53.480;10.004;2023-12-20T06:42:12;8.10;99.90
7206;DHT22;3644;53.480;10.004;2023-12-20T06:44:38;8.10;99.90
7206;DHT22;3644;53.480;10.004;2023-12-20T06:47:04;8.00;99.90
7206;DHT22;3644;53.480;10.004;2023-12-20T06:49:29;8.00;99.90
7206;DHT22;3644;53.480;10.004;2023-12-20T06:51:55;8.20;99.90
7206;DHT22;3644;53.480;10.004;2023-12-20T06:54:20;8.20;99.90
7206;DHT22;3644;53.480;10.004;2023-12-20T06:56:46;7.90;99.90
7206;DHT22;3644;53.480;10.004;2023-12-20T06:59:12;8.00;99.90
7206;DHT22;3644;53.480;10.004;2023-12-20T07:01:37;8.20;99.90
7206;DHT22;3644;53.480;10.004;2023-12-20T07:04:03;8.10;99.90
7206;DHT22;3644;53.480;10.004;2023-12-20T07:06:29;8.60;99.90
7206;DHT22;3644;53.480;10.004;2023-12-20T07:08:54;8.70;99.90
7206;DHT22;3644;53.480;10.004;2023-12-20T07:11:20;9.20;99.90
7206;DHT22;3644;53.480;10.004;2023-12-20T07:13:45;9.30;99.90
7206;DHT22;3644;53.480;10.004;2023-12-20T07:16:11;9.30;99.90
7206;DHT22;3644;53.480;10.004;2023-12-20T07:18:37;9.10;99.90
7206;DHT22;3644;53.480;10.004;2023-12-20T07:21:03;8.80;99.90
7206;DHT22;3644;53.480;10.004;2023-12-20T07:23:28;8.60;99.90
7206;DHT22;3644;53.480;10.004;2023-12-20T07:25:54;8.70;99.90
7206;DHT22;3644;53.480;10.004;2023-12-20T07:28:20;8.70;99.90
7206;DHT22;3644;53.480;10.004;2023-12-20T07:30:45;8.70;99.90
7206;DHT22;3644;53.480;10.004;2023-12-20T07:33:11;8.70;99.90
7206;DHT22;3644;53.480;10.004;2023-12-20T07:35:37;8.50;99.90
7206;DHT22;3644;53.480;10.004;2023-12-20T07:38:03;8.70;99.90
7206;DHT22;3644;53.480;10.004;2023-12-20T07:40:29;8.50;99.90
7206;DHT22;3644;53.480;10.004;2023-12-20T07:42:54;8.50;99.90
7206;DHT22;3644;53.480;10.004;2023-12-20T07:45:20;8.80;99.90
7206;DHT22;3644;53.480;10.004;2023-12-20T07:47:45;8.70;99.90
7206;DHT22;3644;53.480;10.004;2023-12-20T07:50:11;8.80;99.90
7206;DHT22;3644;53.480;10.004;2023-12-20T07:52:36;8.80;99.90
7206;DHT22;3644;53.480;10.004;2023-12-20T07:55:02;8.70;99.90
7206;DHT22;3644;53.480;10.004;2023-12-20T07:57:29;8.40;99.90
7206;DHT22;3644;53.480;10.004;2023-12-20T07:59:55;8.50;99.90
7206;DHT22;3644;53.480;10.004;2023-12-20T08:02:21;8.60;99.90
7206;DHT22;3644;53.480;10.004;2023-12-20T08:04:46;8.60;99.90
7206;DHT22;3644;53.480;10.004;2023-12-20T08:07:12;8.80;99.90
7206;DHT22;3644;53.480;10.004;2023-12-20T08:09:37;8.90;99.90
7206;DHT22;3644;53.480;10.004;2023-12-20T08:12:03;8.80;99.90
7206;DHT22;3644;53.480;10.004;2023-12-20T08:14:29;8.70;99.90
7206;DHT22;3644;53.480;10.004;2023-12-20T08:16:54;8.50;99.90
7206;DHT22;3644;53.480;10.004;2023-12-20T08:19:20;8.70;99.90
7206;DHT22;3644;53.480;10.004;2023-12-20T08:21:45;8.50;99.90
7206;DHT22;3644;53.480;10.004;2023-12-20T08:24:11;8.80;99.90
7206;DHT22;3644;53.480;10.004;2023-12-20T08:26:36;8.70;99.90
7206;DHT22;3644;53.480;10.004;2023-12-20T08:29:01;8.70;99.90
7206;DHT22;3644;53.480;10.004;2023-12-20T08:31:27;8.70;99.90
7206;DHT22;3644;53.480;10.004;2023-12-20T08:33:53;9.00;99.90
7206;DHT22;3644;53.480;10.004;2023-12-20T08:36:19;8.80;99.90
7206;DHT22;3644;53.480;10.004;2023-12-20T08:38:47;9.00;99.90
7206;DHT22;3644;53.480;10.004;2023-12-20T08:41:12;8.80;99.90
7206;DHT22;3644;53.480;10.004;2023-12-20T08:43:38;8.80;99.90
7206;DHT22;3644;53.480;10.004;2023-12-20T08:46:05;8.70;99.90
7206;DHT22;3644;53.480;10.004;2023-12-20T08:48:31;8.80;99.90
7206;DHT22;3644;53.480;10.004;2023-12-20T08:50:57;8.70;99.90
7206;DHT22;3644;53.480;10.004;2023-12-20T08:53:22;8.70;99.90
7206;DHT22;3644;53.480;10.004;2023-12-20T08:55:48;8.70;99.90
7206;DHT22;3644;53.480;10.004;2023-12-20T08:58:14;8.70;99.90
7206;DHT22;3644;53.480;10.004;2023-12-20T09:00:39;9.20;99.90
7206;DHT22;3644;53.480;10.004;2023-12-20T09:03:05;9.20;99.90
7206;DHT22;3644;53.480;10.004;2023-12-20T09:05:31;9.00;99.90
7206;DHT22;3644;53.480;10.004;2023-12-20T09:07:56;8.80;99.90
7206;DHT22;3644;53.480;10.004;2023-12-20T09:10:22;8.60;99.90
7206;DHT22;3644;53.480;10.004;2023-12-20T09:12:51;8.60;99.90
7206;DHT22;3644;53.480;10.004;2023-12-20T09:15:19;8.70;99.90
7206;DHT22;3644;53.480;10.004;2023-12-20T09:17:45;8.70;99.90
7206;DHT22;3644;53.480;10.004;2023-12-20T09:20:10;8.80;99.90
7206;DHT22;3644;53.480;10.004;2023-12-20T09:22:36;8.70;99.90
7206;DHT22;3644;53.480;10.004;2023-12-20T09:25:04;8.50;99.90
7206;DHT22;3644;53.480;10.004;2023-12-20T09:27:29;8.50;99.90
7206;DHT22;3644;53.480;10.004;2023-12-20T09:29:55;8.50;99.90
7206;DHT22;3644;53.480;10.004;2023-12-20T09:32:20;8.40;99.90
7206;DHT22;3644;53.480;10.004;2023-12-20T09:34:47;8.20;99.90
7206;DHT22;3644;53.480;10.004;2023-12-20T09:37:13;7.90;99.90
7206;DHT22;3644;53.480;10.004;2023-12-20T09:39:38;8.00;99.90
7206;DHT22;3644;53.480;10.004;2023-12-20T09:42:05;8.10;99.90
7206;DHT22;3644;53.480;10.004;2023-12-20T09:44:32;8.00;99.90
7206;DHT22;3644;53.480;10.004;2023-12-20T09:47:05;7.80;99.90
7206;DHT22;3644;53.480;10.004;2023-12-20T09:49:31;7.90;99.90
7206;DHT22;3644;53.480;10.004;2023-12-20T09:51:57;8.10;99.90
7206;DHT22;3644;53.480;10.004;2023-12-20T09:54:25;8.40;99.90
7206;DHT22;3644;53.480;10.004;2023-12-20T09:56:52;8.30;99.90
7206;DHT22;3644;53.480;10.004;2023-12-20T09:59:17;8.10;99.90
7206;DHT22;3644;53.480;10.004;2023-12-20T10:01:43;8.20;99.90
7206;DHT22;3644;53.480;10.004;2023-12-20T10:04:10;8.40;99.90
7206;DHT22;3644;53.480;10.004;2023-12-20T10:06:42;8.00;99.90
7206;DHT22;3644;53.480;10.004;2023-12-20T10:09:08;8.10;99.90
7206;DHT22;3644;53.480;10.004;2023-12-20T10:11:38;8.20;99.90
7206;DHT22;3644;53.480;10.004;2023-12-20T10:14:04;8.20;99.90
7206;DHT22;3644;53.480;10.004;2023-12-20T10:16:30;8.30;99.90
7206;DHT22;3644;53.480;10.004;2023-12-20T10:18:56;8.50;99.90
7206;DHT22;3644;53.480;10.004;2023-12-20T10:21:22;8.30;99.90
7206;DHT22;3644;53.480;10.004;2023-12-20T10:23:48;8.20;99.90
7206;DHT22;3644;53.480;10.004;2023-12-20T10:26:25;8.20;99.90
7206;DHT22;3644;53.480;10.004;2023-12-20T10:28:54;8.30;99.90
7206;DHT22;3644;53.480;10.004;2023-12-20T10:31:34;8.20;99.90
7206;DHT22;3644;53.480;10.004;2023-12-20T10:34:01;8.30;99.90
7206;DHT22;3644;53.480;10.004;2023-12-20T10:36:31;8.20;99.90
7206;DHT22;3644;53.480;10.004;2023-12-20T10:38:57;8.40;99.90
7206;DHT22;3644;53.480;10.004;2023-12-20T10:41:31;8.50;99.90
7206;DHT22;3644;53.480;10.004;2023-12-20T10:43:59;8.50;99.90
7206;DHT22;3644;53.480;10.004;2023-12-20T10:46:26;8.30;99.90
7206;DHT22;3644;53.480;10.004;2023-12-20T10:48:54;8.70;99.90
7206;DHT22;3644;53.480;10.004;2023-12-20T10:51:20;8.40;99.90
7206;DHT22;3644;53.480;10.004;2023-12-20T10:53:50;8.40;99.90
7206;DHT22;3644;53.480;10.004;2023-12-20T10:56:17;8.10;99.90
7206;DHT22;3644;53.480;10.004;2023-12-20T10:58:43;8.20;99.90
7206;DHT22;3644;53.480;10.004;2023-12-20T11:01:13;8.20;99.90
7206;DHT22;3644;53.480;10.004;2023-12-20T11:03:47;8.20;99.90
7206;DHT22;3644;53.480;10.004;2023-12-20T11:06:27;8.30;99.90
7206;DHT22;3644;53.480;10.004;2023-12-20T11:12:11;8.00;99.90
7206;DHT22;3644;53.480;10.004;2023-12-20T11:17:10;8.10;99.90
7206;DHT22;3644;53.480;10.004;2023-12-20T11:22:24;7.90;99.90
7206;DHT22;3644;53.480;10.004;2023-12-20T11:24:51;7.90;99.90
7206;DHT22;3644;53.480;10.004;2023-12-20T11:27:18;8.20;99.90
7206;DHT22;3644;53.480;10.004;2023-12-20T11:29:51;8.00;99.90
7206;DHT22;3644;53.480;10.004;2023-12-20T11:35:17;8.00;99.90
7206;DHT22;3644;53.480;10.004;2023-12-20T11:37:44;7.80;99.90
7206;DHT22;3644;53.480;10.004;2023-12-20T11:40:17;7.90;99.90
7206;DHT22;3644;53.480;10.004;2023-12-20T11:42:44;8.00;99.90
7206;DHT22;3644;53.480;10.004;2023-12-20T11:45:11;8.10;99.90
7206;DHT22;3644;53.480;10.004;2023-12-20T11:47:37;8.00;99.90
7206;DHT22;3644;53.480;10.004;2023-12-20T11:50:02;7.70;99.90
7206;DHT22;3644;53.480;10.004;2023-12-20T11:52:30;8.00;99.90
7206;DHT22;3644;53.480;10.004;2023-12-20T11:54:56;8.20;99.90
7206;DHT22;3644;53.480;10.004;2023-12-20T11:57:22;8.50;99.90
7206;DHT22;3644;53.480;10.004;2023-12-20T11:59:47;8.50;99.90
7206;DHT22;3644;53.480;10.004;2023-12-20T12:02:13;8.50;99.90
7206;DHT22;3644;53.480;10.004;2023-12-20T12:04:41;8.70;99.90
7206;DHT22;3644;53.480;10.004;2023-12-20T12:07:07;8.80;99.90
7206;DHT22;3644;53.480;10.004;2023-12-20T12:09:33;8.80;99.90
7206;DHT22;3644;53.480;10.004;2023-12-20T12:11:58;8.80;99.90
7206;DHT22;3644;53.480;10.004;2023-12-20T12:14:24;8.70;99.90
7206;DHT22;3644;53.480;10.004;2023-12-20T12:16:50;8.50;99.90
7206;DHT22;3644;53.480;10.004;2023-12-20T12:19:22;8.50;99.90
7206;DHT22;3644;53.480;10.004;2023-12-20T12:21:49;8.30;99.90
7206;DHT22;3644;53.480;10.004;2023-12-20T12:24:14;8.20;99.90
7206;DHT22;3644;53.480;10.004;2023-12-20T12:26:40;8.20;99.90
7206;DHT22;3644;53.480;10.004;2023-12-20T12:29:09;8.20;99.90
7206;DHT22;3644;53.480;10.004;2023-12-20T12:31:35;8.10;99.90
7206;DHT22;3644;53.480;10.004;2023-12-20T12:34:01;8.30;99.90
7206;DHT22;3644;53.480;10.004;2023-12-20T12:36:28;8.00;99.90
7206;DHT22;3644;53.480;10.004;2023-12-20T12:38:56;8.10;99.90
7206;DHT22;3644;53.480;10.004;2023-12-20T12:41:22;8.20;99.90
7206;DHT22;3644;53.480;10.004;2023-12-20T12:43:47;8.40;99.90
7206;DHT22;3644;53.480;10.004;2023-12-20T12:46:13;8.40;99.90
7206;DHT22;3644;53.480;10.004;2023-12-20T12:48:38;8.30;99.90
7206;DHT22;3644;53.480;10.004;2023-12-20T12:51:04;8.30;99.90
7206;DHT22;3644;53.480;10.004;2023-12-20T12:53:30;8.20;99.90
7206;DHT22;3644;53.480;10.004;2023-12-20T12:55:55;8.30;99.90
7206;DHT22;3644;53.480;10.004;2023-12-20T12:58:21;8.10;99.90
7206;DHT22;3644;53.480;10.004;2023-12-20T13:00:47;8.00;99.90
7206;DHT22;3644;53.480;10.004;2023-12-20T13:03:12;8.10;99.90
7206;DHT22;3644;53.480;10.004;2023-12-20T13:05:38;8.30;99.90
7206;DHT22;3644;53.480;10.004;2023-12-20T13:08:04;8.30;99.90
7206;DHT22;3644;53.480;10.004;2023-12-20T13:10:30;8.30;99.90
7206;DHT22;3644;53.480;10.004;2023-12-20T13:12:55;8.50;99.90
7206;DHT22;3644;53.480;10.004;2023-12-20T13:15:21;8.60;99.90
7206;DHT22;3644;53.480;10.004;2023-12-20T13:17:46;8.50;99.90
7206;DHT22;3644;53.480;10.004;2023-12-20T13:20:12;8.40;99.90
7206;DHT22;3644;53.480;10.004;2023-12-20T13:22:37;8.50;99.90
7206;DHT22;3644;53.480;10.004;2023-12-20T13:25:03;8.50;99.90
7206;DHT22;3644;53.480;10.004;2023-12-20T13:27:29;8.50;99.90
7206;DHT22;3644;53.480;10.004;2023-12-20T13:29:54;8.40;99.90
7206;DHT22;3644;53.480;10.004;2023-12-20T13:32:20;8.40;99.90
7206;DHT22;3644;53.480;10.004;2023-12-20T13:34:45;8.40;99.90
7206;DHT22;3644;53.480;10.004;2023-12-20T13:37:12;8.50;99.90
7206;DHT22;3644;53.480;10.004;2023-12-20T13:39:37;8.50;99.90
7206;DHT22;3644;53.480;10.004;2023-12-20T13:42:03;8.80;99.90
7206;DHT22;3644;53.480;10.004;2023-12-20T13:44:30;8.60;99.90
7206;DHT22;3644;53.480;10.004;2023-12-20T13:46:56;8.50;99.90
7206;DHT22;3644;53.480;10.004;2023-12-20T13:49:21;8.40;99.90
7206;DHT22;3644;53.480;10.004;2023-12-20T13:51:50;8.40;99.90
7206;DHT22;3644;53.480;10.004;2023-12-20T13:54:16;8.50;99.90
7206;DHT22;3644;53.480;10.004;2023-12-20T13:56:45;8.80;99.90
7206;DHT22;3644;53.480;10.004;2023-12-20T13:59:10;8.80;99.90
7206;DHT22;3644;53.480;10.004;2023-12-20T14:01:38;8.70;99.90
7206;DHT22;3644;53.480;10.004;2023-12-20T14:04:03;8.50;99.90
7206;DHT22;3644;53.480;10.004;2023-12-20T14:06:29;8.70;99.90
7206;DHT22;3644;53.480;10.004;2023-12-20T14:08:55;8.80;99.90
7206;DHT22;3644;53.480;10.004;2023-12-20T14:11:20;8.70;99.90
7206;DHT22;3644;53.480;10.004;2023-12-20T14:13:46;8.80;99.90
7206;DHT22;3644;53.480;10.004;2023-12-20T14:16:11;8.80;99.90
7206;DHT22;3644;53.480;10.004;2023-12-20T14:18:37;8.70;99.90
7206;DHT22;3644;53.480;10.004;2023-12-20T14:21:03;8.70;99.90
7206;DHT22;3644;53.480;10.004;2023-12-20T14:23:28;8.60;99.90
7206;DHT22;3644;53.480;10.004;2023-12-20T14:25:54;8.40;99.90
7206;DHT22;3644;53.480;10.004;2023-12-20T14:28:21;8.60;99.90
7206;DHT22;3644;53.480;10.004;2023-12-20T14:30:46;8.70;99.90
7206;DHT22;3644;53.480;10.004;2023-12-20T14:33:12;8.60;99.90
7206;DHT22;3644;53.480;10.004;2023-12-20T14:35:39;8.50;99.90
7206;DHT22;3644;53.480;10.004;2023-12-20T14:38:06;8.50;99.90
7206;DHT22;3644;53.480;10.004;2023-12-20T14:40:31;8.40;99.90
7206;DHT22;3644;53.480;10.004;2023-12-20T14:42:57;8.20;99.90
7206;DHT22;3644;53.480;10.004;2023-12-20T14:45:22;8.20;99.90
7206;DHT22;3644;53.480;10.004;2023-12-20T14:47:48;8.30;99.90
7206;DHT22;3644;53.480;10.004;2023-12-20T14:50:14;8.60;99.90
7206;DHT22;3644;53.480;10.004;2023-12-20T14:52:44;8.70;99.90
7206;DHT22;3644;53.480;10.004;2023-12-20T14:55:10;8.80;99.90
7206;DHT22;3644;53.480;10.004;2023-12-20T14:57:36;9.00;99.90
7206;DHT22;3644;53.480;10.004;2023-12-20T15:00:02;8.70;99.90
7206;DHT22;3644;53.480;10.004;2023-12-20T15:02:27;8.80;99.90
7206;DHT22;3644;53.480;10.004;2023-12-20T15:04:53;8.90;99.90
7206;DHT22;3644;53.480;10.004;2023-12-20T15:07:19;9.10;99.90
7206;DHT22;3644;53.480;10.004;2023-12-20T15:09:44;9.00;99.90
7206;DHT22;3644;53.480;10.004;2023-12-20T15:12:12;8.60;99.90
7206;DHT22;3644;53.480;10.004;2023-12-20T15:14:38;8.70;99.90
7206;DHT22;3644;53.480;10.004;2023-12-20T15:17:04;8.70;99.90
7206;DHT22;3644;53.480;10.004;2023-12-20T15:19:30;8.70;99.90
7206;DHT22;3644;53.480;10.004;2023-12-20T15:21:56;8.70;99.90
7206;DHT22;3644;53.480;10.004;2023-12-20T15:24:22;8.50;99.90
7206;DHT22;3644;53.480;10.004;2023-12-20T15:26:54;8.40;99.90
7206;DHT22;3644;53.480;10.004;2023-12-20T15:29:19;8.60;99.90
7206;DHT22;3644;53.480;10.004;2023-12-20T15:31:48;8.50;99.90
7206;DHT22;3644;53.480;10.004;2023-12-20T15:34:14;8.50;99.90
7206;DHT22;3644;53.480;10.004;2023-12-20T15:36:40;8.60;99.90
7206;DHT22;3644;53.480;10.004;2023-12-20T15:39:06;8.60;99.90
7206;DHT22;3644;53.480;10.004;2023-12-20T15:41:34;8.60;99.90
7206;DHT22;3644;53.480;10.004;2023-12-20T15:44:00;8.60;99.90
7206;DHT22;3644;53.480;10.004;2023-12-20T15:46:25;8.50;99.90
7206;DHT22;3644;53.480;10.004;2023-12-20T15:48:51;8.60;99.90
7206;DHT22;3644;53.480;10.004;2023-12-20T15:51:22;8.40;99.90
7206;DHT22;3644;53.480;10.004;2023-12-20T15:53:48;8.30;99.90
7206;DHT22;3644;53.480;10.004;2023-12-20T15:56:15;8.10;99.90
7206;DHT22;3644;53.480;10.004;2023-12-20T15:58:40;8.20;99.90
7206;DHT22;3644;53.480;10.004;2023-12-20T16:01:06;8.30;99.90
7206;DHT22;3644;53.480;10.004;2023-12-20T16:03:31;8.30;99.90
7206;DHT22;3644;53.480;10.004;2023-12-20T16:05:57;8.30;99.90